sensor_id;sensor_type;location;lat;lon;timestamp;P1;durP1;ratioP1;P2;durP2;ratioP2
53835;SDS011;39737;43.334;21.936;2022-10-16T00:01:28;14.60;;;3.83;;
53835;SDS011;39737;43.334;21.936;2022-10-16T00:04:15;2.60;;;1.48;;
53835;SDS011;39737;43.334;21.936;2022-10-16T00:07:01;4.15;;;2.45;;
53835;SDS011;39737;43.334;21.936;2022-10-16T00:09:47;4.97;;;3.20;;
53835;SDS011;39737;43.334;21.936;2022-10-16T00:12:33;6.10;;;3.78;;
53835;SDS011;39737;43.334;21.936;2022-10-16T00:15:19;2.67;;;2.42;;
53835;SDS011;39737;43.334;21.936;2022-10-16T00:18:05;9.02;;;3.33;;
53835;SDS011;39737;43.334;21.936;2022-10-16T00:20:52;18.25;;;6.05;;
53835;SDS011;39737;43.334;21.936;2022-10-16T00:24:15;6.82;;;4.03;;
53835;SDS011;39737;43.334;21.936;2022-10-16T00:27:01;8.05;;;3.28;;
53835;SDS011;39737;43.334;21.936;2022-10-16T00:29:51;7.70;;;4.70;;
53835;SDS011;39737;43.334;21.936;2022-10-16T00:32:38;3.08;;;1.95;;
53835;SDS011;39737;43.334;21.936;2022-10-16T00:35:24;6.82;;;1.60;;
53835;SDS011;39737;43.334;21.936;2022-10-16T00:38:10;3.05;;;2.70;;
53835;SDS011;39737;43.334;21.936;2022-10-16T00:40:56;0.82;;;0.82;;
53835;SDS011;39737;43.334;21.936;2022-10-16T00:43:43;5.72;;;3.15;;
53835;SDS011;39737;43.334;21.936;2022-10-16T00:49:22;7.00;;;3.95;;
53835;SDS011;39737;43.334;21.936;2022-10-16T00:52:08;5.07;;;3.00;;
53835;SDS011;39737;43.334;21.936;2022-10-16T00:54:57;6.40;;;3.35;;
53835;SDS011;39737;43.334;21.936;2022-10-16T00:57:44;6.15;;;3.72;;
53835;SDS011;39737;43.334;21.936;2022-10-16T01:00:31;6.93;;;4.07;;
53835;SDS011;39737;43.334;21.936;2022-10-16T01:03:25;9.77;;;4.20;;
53835;SDS011;39737;43.334;21.936;2022-10-16T01:09:28;6.03;;;1.63;;
53835;SDS011;39737;43.334;21.936;2022-10-16T01:15:28;4.93;;;2.97;;
53835;SDS011;39737;43.334;21.936;2022-10-16T01:21:21;4.43;;;3.25;;
53835;SDS011;39737;43.334;21.936;2022-10-16T01:24:11;10.68;;;3.75;;
53835;SDS011;39737;43.334;21.936;2022-10-16T01:27:22;4.32;;;2.10;;
53835;SDS011;39737;43.334;21.936;2022-10-16T01:30:18;5.03;;;2.13;;
53835;SDS011;39737;43.334;21.936;2022-10-16T01:33:11;5.40;;;3.28;;
53835;SDS011;39737;43.334;21.936;2022-10-16T01:36:06;14.02;;;5.93;;
53835;SDS011;39737;43.334;21.936;2022-10-16T01:38:56;55.78;;;20.00;;
53835;SDS011;39737;43.334;21.936;2022-10-16T01:41:47;11.13;;;6.40;;
53835;SDS011;39737;43.334;21.936;2022-10-16T01:44:34;12.35;;;4.53;;
53835;SDS011;39737;43.334;21.936;2022-10-16T01:47:22;15.65;;;6.40;;
53835;SDS011;39737;43.334;21.936;2022-10-16T01:50:10;13.63;;;8.63;;
53835;SDS011;39737;43.334;21.936;2022-10-16T01:52:57;11.43;;;7.20;;
53835;SDS011;39737;43.334;21.936;2022-10-16T01:55:44;6.43;;;3.13;;
53835;SDS011;39737;43.334;21.936;2022-10-16T01:58:33;1.45;;;1.35;;
53835;SDS011;39737;43.334;21.936;2022-10-16T02:01:21;6.47;;;4.53;;
53835;SDS011;39737;43.334;21.936;2022-10-16T02:04:52;1.95;;;1.25;;
53835;SDS011;39737;43.334;21.936;2022-10-16T02:07:17;7.55;;;5.20;;
53835;SDS011;39737;43.334;21.936;2022-10-16T02:10:03;3.60;;;2.13;;
53835;SDS011;39737;43.334;21.936;2022-10-16T02:13:03;6.20;;;4.03;;
53835;SDS011;39737;43.334;21.936;2022-10-16T02:15:50;4.22;;;0.90;;
53835;SDS011;39737;43.334;21.936;2022-10-16T02:18:39;9.60;;;4.78;;
53835;SDS011;39737;43.334;21.936;2022-10-16T02:21:26;1.65;;;1.55;;
53835;SDS011;39737;43.334;21.936;2022-10-16T02:27:09;2.50;;;1.88;;
53835;SDS011;39737;43.334;21.936;2022-10-16T02:32:44;1.05;;;1.05;;
53835;SDS011;39737;43.334;21.936;2022-10-16T02:35:32;5.03;;;3.35;;
53835;SDS011;39737;43.334;21.936;2022-10-16T02:38:18;3.95;;;2.67;;
53835;SDS011;39737;43.334;21.936;2022-10-16T02:41:06;2.97;;;2.67;;
53835;SDS011;39737;43.334;21.936;2022-10-16T02:43:52;6.78;;;4.68;;
53835;SDS011;39737;43.334;21.936;2022-10-16T02:46:39;6.53;;;3.92;;
53835;SDS011;39737;43.334;21.936;2022-10-16T02:49:25;6.57;;;4.18;;
53835;SDS011;39737;43.334;21.936;2022-10-16T02:52:11;1.08;;;1.08;;
53835;SDS011;39737;43.334;21.936;2022-10-16T02:54:58;3.15;;;1.70;;
53835;SDS011;39737;43.334;21.936;2022-10-16T02:57:44;5.70;;;3.45;;
53835;SDS011;39737;43.334;21.936;2022-10-16T03:00:30;6.15;;;3.67;;
53835;SDS011;39737;43.334;21.936;2022-10-16T03:03:16;6.43;;;4.32;;
53835;SDS011;39737;43.334;21.936;2022-10-16T03:06:02;1.65;;;1.35;;
53835;SDS011;39737;43.334;21.936;2022-10-16T03:08:48;6.78;;;4.07;;
53835;SDS011;39737;43.334;21.936;2022-10-16T03:11:34;2.63;;;2.25;;
53835;SDS011;39737;43.334;21.936;2022-10-16T03:14:21;3.47;;;2.22;;
53835;SDS011;39737;43.334;21.936;2022-10-16T03:17:07;9.05;;;2.80;;
53835;SDS011;39737;43.334;21.936;2022-10-16T03:19:53;6.85;;;3.55;;
53835;SDS011;39737;43.334;21.936;2022-10-16T03:22:39;13.15;;;2.83;;
53835;SDS011;39737;43.334;21.936;2022-10-16T03:25:25;1.27;;;1.05;;
53835;SDS011;39737;43.334;21.936;2022-10-16T03:28:12;7.13;;;3.15;;
53835;SDS011;39737;43.334;21.936;2022-10-16T03:30:58;2.50;;;1.92;;
53835;SDS011;39737;43.334;21.936;2022-10-16T03:33:44;14.65;;;5.70;;
53835;SDS011;39737;43.334;21.936;2022-10-16T03:36:30;2.50;;;2.28;;
53835;SDS011;39737;43.334;21.936;2022-10-16T03:39:16;1.85;;;1.73;;
53835;SDS011;39737;43.334;21.936;2022-10-16T03:42:03;2.38;;;1.65;;
53835;SDS011;39737;43.334;21.936;2022-10-16T03:44:49;10.07;;;2.45;;
53835;SDS011;39737;43.334;21.936;2022-10-16T03:47:35;11.10;;;5.72;;
53835;SDS011;39737;43.334;21.936;2022-10-16T03:50:21;1.77;;;1.60;;
53835;SDS011;39737;43.334;21.936;2022-10-16T03:53:07;1.45;;;1.27;;
53835;SDS011;39737;43.334;21.936;2022-10-16T03:55:53;1.77;;;1.65;;
53835;SDS011;39737;43.334;21.936;2022-10-16T03:58:39;8.20;;;5.53;;
53835;SDS011;39737;43.334;21.936;2022-10-16T04:01:25;1.55;;;1.30;;
53835;SDS011;39737;43.334;21.936;2022-10-16T04:04:12;3.65;;;2.92;;
53835;SDS011;39737;43.334;21.936;2022-10-16T04:06:58;2.15;;;1.38;;
53835;SDS011;39737;43.334;21.936;2022-10-16T04:09:44;6.70;;;2.28;;
53835;SDS011;39737;43.334;21.936;2022-10-16T04:12:30;2.78;;;2.53;;
53835;SDS011;39737;43.334;21.936;2022-10-16T04:15:16;1.00;;;1.00;;
53835;SDS011;39737;43.334;21.936;2022-10-16T04:18:03;5.00;;;3.92;;
53835;SDS011;39737;43.334;21.936;2022-10-16T04:20:49;6.63;;;4.30;;
53835;SDS011;39737;43.334;21.936;2022-10-16T04:23:35;1.52;;;1.42;;
53835;SDS011;39737;43.334;21.936;2022-10-16T04:26:21;9.93;;;2.25;;
53835;SDS011;39737;43.334;21.936;2022-10-16T04:29:07;4.75;;;1.17;;
53835;SDS011;39737;43.334;21.936;2022-10-16T04:31:54;4.13;;;3.08;;
53835;SDS011;39737;43.334;21.936;2022-10-16T04:34:40;0.88;;;0.88;;
53835;SDS011;39737;43.334;21.936;2022-10-16T04:37:26;5.90;;;3.63;;
53835;SDS011;39737;43.334;21.936;2022-10-16T04:40:14;2.60;;;1.02;;
53835;SDS011;39737;43.334;21.936;2022-10-16T04:43:00;9.55;;;5.18;;
53835;SDS011;39737;43.334;21.936;2022-10-16T04:45:47;4.43;;;3.28;;
53835;SDS011;39737;43.334;21.936;2022-10-16T04:48:33;3.60;;;2.10;;
53835;SDS011;39737;43.334;21.936;2022-10-16T04:51:19;1.45;;;1.35;;
53835;SDS011;39737;43.334;21.936;2022-10-16T04:54:05;2.17;;;1.77;;
53835;SDS011;39737;43.334;21.936;2022-10-16T04:56:51;5.30;;;2.58;;
53835;SDS011;39737;43.334;21.936;2022-10-16T04:59:38;2.05;;;1.60;;
53835;SDS011;39737;43.334;21.936;2022-10-16T05:02:24;16.63;;;3.38;;
53835;SDS011;39737;43.334;21.936;2022-10-16T05:05:10;2.08;;;1.80;;
53835;SDS011;39737;43.334;21.936;2022-10-16T05:07:56;2.10;;;2.00;;
53835;SDS011;39737;43.334;21.936;2022-10-16T05:10:42;1.45;;;1.35;;
53835;SDS011;39737;43.334;21.936;2022-10-16T05:13:29;2.05;;;1.77;;
53835;SDS011;39737;43.334;21.936;2022-10-16T05:16:15;1.30;;;1.15;;
53835;SDS011;39737;43.334;21.936;2022-10-16T05:19:01;7.28;;;3.53;;
53835;SDS011;39737;43.334;21.936;2022-10-16T05:22:07;1.50;;;1.40;;
53835;SDS011;39737;43.334;21.936;2022-10-16T05:24:53;5.45;;;3.60;;
53835;SDS011;39737;43.334;21.936;2022-10-16T05:27:40;3.97;;;3.15;;
53835;SDS011;39737;43.334;21.936;2022-10-16T05:30:26;2.63;;;1.88;;
53835;SDS011;39737;43.334;21.936;2022-10-16T05:33:12;3.47;;;1.88;;
53835;SDS011;39737;43.334;21.936;2022-10-16T05:36:02;2.25;;;1.15;;
53835;SDS011;39737;43.334;21.936;2022-10-16T05:38:50;4.40;;;2.38;;
53835;SDS011;39737;43.334;21.936;2022-10-16T05:41:36;8.43;;;3.70;;
53835;SDS011;39737;43.334;21.936;2022-10-16T05:44:22;1.83;;;1.73;;
53835;SDS011;39737;43.334;21.936;2022-10-16T05:47:08;10.40;;;7.70;;
53835;SDS011;39737;43.334;21.936;2022-10-16T05:49:56;7.10;;;4.65;;
53835;SDS011;39737;43.334;21.936;2022-10-16T05:52:42;12.13;;;4.85;;
53835;SDS011;39737;43.334;21.936;2022-10-16T05:55:28;9.85;;;5.82;;
53835;SDS011;39737;43.334;21.936;2022-10-16T05:58:15;6.70;;;3.90;;
53835;SDS011;39737;43.334;21.936;2022-10-16T06:01:02;8.80;;;5.30;;
53835;SDS011;39737;43.334;21.936;2022-10-16T06:03:49;5.85;;;4.20;;
53835;SDS011;39737;43.334;21.936;2022-10-16T06:06:35;6.85;;;4.50;;
53835;SDS011;39737;43.334;21.936;2022-10-16T06:09:22;7.45;;;5.38;;
53835;SDS011;39737;43.334;21.936;2022-10-16T06:12:08;5.78;;;3.15;;
53835;SDS011;39737;43.334;21.936;2022-10-16T06:14:54;9.10;;;4.43;;
53835;SDS011;39737;43.334;21.936;2022-10-16T06:17:40;7.93;;;5.68;;
53835;SDS011;39737;43.334;21.936;2022-10-16T06:20:30;10.90;;;6.50;;
53835;SDS011;39737;43.334;21.936;2022-10-16T06:23:25;13.23;;;7.57;;
53835;SDS011;39737;43.334;21.936;2022-10-16T06:26:12;15.00;;;9.00;;
53835;SDS011;39737;43.334;21.936;2022-10-16T06:28:59;15.90;;;8.15;;
53835;SDS011;39737;43.334;21.936;2022-10-16T06:31:45;19.35;;;7.43;;
53835;SDS011;39737;43.334;21.936;2022-10-16T06:34:31;15.13;;;7.50;;
53835;SDS011;39737;43.334;21.936;2022-10-16T06:37:18;8.88;;;4.60;;
53835;SDS011;39737;43.334;21.936;2022-10-16T06:40:06;9.80;;;5.07;;
53835;SDS011;39737;43.334;21.936;2022-10-16T06:42:54;10.20;;;4.47;;
53835;SDS011;39737;43.334;21.936;2022-10-16T06:45:40;10.02;;;4.85;;
53835;SDS011;39737;43.334;21.936;2022-10-16T06:48:27;6.85;;;4.53;;
53835;SDS011;39737;43.334;21.936;2022-10-16T06:51:13;8.70;;;5.53;;
53835;SDS011;39737;43.334;21.936;2022-10-16T06:54:00;8.65;;;4.57;;
53835;SDS011;39737;43.334;21.936;2022-10-16T06:56:49;7.75;;;4.78;;
53835;SDS011;39737;43.334;21.936;2022-10-16T06:59:36;10.05;;;5.05;;
53835;SDS011;39737;43.334;21.936;2022-10-16T07:02:22;8.38;;;5.07;;
53835;SDS011;39737;43.334;21.936;2022-10-16T07:05:09;12.05;;;6.10;;
53835;SDS011;39737;43.334;21.936;2022-10-16T07:07:55;8.57;;;4.05;;
53835;SDS011;39737;43.334;21.936;2022-10-16T07:10:41;38.67;;;16.60;;
53835;SDS011;39737;43.334;21.936;2022-10-16T07:13:27;29.45;;;11.52;;
53835;SDS011;39737;43.334;21.936;2022-10-16T07:16:18;8.45;;;5.05;;
53835;SDS011;39737;43.334;21.936;2022-10-16T07:19:04;25.83;;;11.57;;
53835;SDS011;39737;43.334;21.936;2022-10-16T07:21:50;8.43;;;4.75;;
53835;SDS011;39737;43.334;21.936;2022-10-16T07:24:54;49.15;;;17.65;;
53835;SDS011;39737;43.334;21.936;2022-10-16T07:27:40;10.23;;;5.65;;
53835;SDS011;39737;43.334;21.936;2022-10-16T07:30:26;12.90;;;7.60;;
53835;SDS011;39737;43.334;21.936;2022-10-16T07:33:13;6.53;;;3.88;;
53835;SDS011;39737;43.334;21.936;2022-10-16T07:35:59;4.05;;;3.10;;
53835;SDS011;39737;43.334;21.936;2022-10-16T07:38:45;7.90;;;4.50;;
53835;SDS011;39737;43.334;21.936;2022-10-16T07:41:32;9.68;;;5.50;;
53835;SDS011;39737;43.334;21.936;2022-10-16T07:44:18;21.58;;;9.73;;
53835;SDS011;39737;43.334;21.936;2022-10-16T07:47:04;13.40;;;6.78;;
53835;SDS011;39737;43.334;21.936;2022-10-16T07:49:50;11.23;;;7.03;;
53835;SDS011;39737;43.334;21.936;2022-10-16T07:52:36;13.02;;;6.95;;
53835;SDS011;39737;43.334;21.936;2022-10-16T07:55:22;10.30;;;5.63;;
53835;SDS011;39737;43.334;21.936;2022-10-16T07:58:08;13.07;;;6.13;;
53835;SDS011;39737;43.334;21.936;2022-10-16T08:00:55;10.95;;;6.22;;
53835;SDS011;39737;43.334;21.936;2022-10-16T08:03:42;14.07;;;6.28;;
53835;SDS011;39737;43.334;21.936;2022-10-16T08:06:29;9.48;;;5.80;;
53835;SDS011;39737;43.334;21.936;2022-10-16T08:09:33;10.88;;;6.47;;
53835;SDS011;39737;43.334;21.936;2022-10-16T08:12:19;8.48;;;5.60;;
53835;SDS011;39737;43.334;21.936;2022-10-16T08:15:05;9.07;;;5.05;;
53835;SDS011;39737;43.334;21.936;2022-10-16T08:17:58;9.60;;;5.88;;
53835;SDS011;39737;43.334;21.936;2022-10-16T08:20:45;8.80;;;5.28;;
53835;SDS011;39737;43.334;21.936;2022-10-16T08:23:31;8.88;;;4.35;;
53835;SDS011;39737;43.334;21.936;2022-10-16T08:26:17;14.70;;;6.72;;
53835;SDS011;39737;43.334;21.936;2022-10-16T08:29:04;8.32;;;5.95;;
53835;SDS011;39737;43.334;21.936;2022-10-16T08:31:51;15.57;;;5.90;;
53835;SDS011;39737;43.334;21.936;2022-10-16T08:34:37;12.35;;;6.28;;
53835;SDS011;39737;43.334;21.936;2022-10-16T08:37:23;9.95;;;6.00;;
53835;SDS011;39737;43.334;21.936;2022-10-16T08:40:20;11.20;;;6.60;;
53835;SDS011;39737;43.334;21.936;2022-10-16T08:49:11;13.93;;;7.22;;
53835;SDS011;39737;43.334;21.936;2022-10-16T08:51:58;13.10;;;5.97;;
53835;SDS011;39737;43.334;21.936;2022-10-16T08:54:47;11.75;;;5.63;;
53835;SDS011;39737;43.334;21.936;2022-10-16T08:57:33;7.47;;;4.88;;
53835;SDS011;39737;43.334;21.936;2022-10-16T09:00:20;13.63;;;4.70;;
53835;SDS011;39737;43.334;21.936;2022-10-16T09:12:37;26.20;;;7.85;;
53835;SDS011;39737;43.334;21.936;2022-10-16T09:20:51;24.80;;;8.82;;
53835;SDS011;39737;43.334;21.936;2022-10-16T09:23:39;16.92;;;6.38;;
53835;SDS011;39737;43.334;21.936;2022-10-16T09:26:25;8.88;;;4.57;;
53835;SDS011;39737;43.334;21.936;2022-10-16T09:29:12;19.13;;;7.35;;
53835;SDS011;39737;43.334;21.936;2022-10-16T09:32:06;9.90;;;4.72;;
53835;SDS011;39737;43.334;21.936;2022-10-16T09:34:54;8.75;;;4.22;;
53835;SDS011;39737;43.334;21.936;2022-10-16T09:37:45;7.00;;;4.15;;
53835;SDS011;39737;43.334;21.936;2022-10-16T09:40:38;10.52;;;5.25;;
53835;SDS011;39737;43.334;21.936;2022-10-16T09:43:52;8.20;;;4.55;;
53835;SDS011;39737;43.334;21.936;2022-10-16T09:46:38;8.65;;;4.10;;
53835;SDS011;39737;43.334;21.936;2022-10-16T09:49:26;6.85;;;4.18;;
53835;SDS011;39737;43.334;21.936;2022-10-16T09:52:13;13.98;;;5.95;;
53835;SDS011;39737;43.334;21.936;2022-10-16T09:55:02;11.57;;;5.07;;
53835;SDS011;39737;43.334;21.936;2022-10-16T09:58:11;7.10;;;3.60;;
53835;SDS011;39737;43.334;21.936;2022-10-16T10:00:59;7.22;;;4.47;;
53835;SDS011;39737;43.334;21.936;2022-10-16T10:03:46;5.88;;;3.75;;
53835;SDS011;39737;43.334;21.936;2022-10-16T10:06:34;5.70;;;3.80;;
53835;SDS011;39737;43.334;21.936;2022-10-16T10:09:34;4.28;;;2.67;;
53835;SDS011;39737;43.334;21.936;2022-10-16T10:12:24;6.78;;;4.55;;
53835;SDS011;39737;43.334;21.936;2022-10-16T10:15:12;5.93;;;3.95;;
53835;SDS011;39737;43.334;21.936;2022-10-16T10:17:59;9.02;;;3.38;;
53835;SDS011;39737;43.334;21.936;2022-10-16T10:21:02;5.30;;;3.50;;
53835;SDS011;39737;43.334;21.936;2022-10-16T10:23:55;9.38;;;5.43;;
53835;SDS011;39737;43.334;21.936;2022-10-16T10:27:07;11.45;;;5.10;;
53835;SDS011;39737;43.334;21.936;2022-10-16T10:33:13;8.85;;;3.28;;
53835;SDS011;39737;43.334;21.936;2022-10-16T11:08:00;7.10;;;3.47;;
53835;SDS011;39737;43.334;21.936;2022-10-16T11:16:39;5.18;;;2.97;;
53835;SDS011;39737;43.334;21.936;2022-10-16T11:19:32;4.55;;;2.78;;
53835;SDS011;39737;43.334;21.936;2022-10-16T11:22:30;5.60;;;3.08;;
53835;SDS011;39737;43.334;21.936;2022-10-16T11:25:36;4.63;;;3.05;;
53835;SDS011;39737;43.334;21.936;2022-10-16T11:28:23;5.95;;;3.38;;
53835;SDS011;39737;43.334;21.936;2022-10-16T11:31:36;4.75;;;2.97;;
53835;SDS011;39737;43.334;21.936;2022-10-16T11:34:38;3.08;;;1.90;;
53835;SDS011;39737;43.334;21.936;2022-10-16T11:37:29;3.60;;;2.40;;
53835;SDS011;39737;43.334;21.936;2022-10-16T11:40:19;3.45;;;2.60;;
53835;SDS011;39737;43.334;21.936;2022-10-16T11:43:11;3.80;;;2.50;;
53835;SDS011;39737;43.334;21.936;2022-10-16T11:46:15;6.55;;;2.83;;
53835;SDS011;39737;43.334;21.936;2022-10-16T11:49:04;15.35;;;8.05;;
53835;SDS011;39737;43.334;21.936;2022-10-16T11:51:57;7.20;;;4.93;;
53835;SDS011;39737;43.334;21.936;2022-10-16T11:54:51;5.90;;;2.88;;
53835;SDS011;39737;43.334;21.936;2022-10-16T11:57:39;3.00;;;2.10;;
53835;SDS011;39737;43.334;21.936;2022-10-16T12:06:40;13.25;;;3.80;;
53835;SDS011;39737;43.334;21.936;2022-10-16T12:09:29;6.57;;;3.25;;
53835;SDS011;39737;43.334;21.936;2022-10-16T12:18:24;4.30;;;2.45;;
53835;SDS011;39737;43.334;21.936;2022-10-16T12:21:12;5.40;;;3.08;;
53835;SDS011;39737;43.334;21.936;2022-10-16T12:24:26;3.42;;;2.17;;
53835;SDS011;39737;43.334;21.936;2022-10-16T12:27:22;8.07;;;2.90;;
53835;SDS011;39737;43.334;21.936;2022-10-16T12:30:14;9.35;;;2.72;;
53835;SDS011;39737;43.334;21.936;2022-10-16T12:33:06;4.13;;;2.72;;
53835;SDS011;39737;43.334;21.936;2022-10-16T12:38:58;4.25;;;2.67;;
53835;SDS011;39737;43.334;21.936;2022-10-16T12:41:44;4.20;;;2.63;;
53835;SDS011;39737;43.334;21.936;2022-10-16T12:44:32;6.63;;;3.08;;
53835;SDS011;39737;43.334;21.936;2022-10-16T12:47:23;4.22;;;2.85;;
53835;SDS011;39737;43.334;21.936;2022-10-16T12:53:19;3.85;;;1.92;;
53835;SDS011;39737;43.334;21.936;2022-10-16T12:56:20;3.30;;;1.75;;
53835;SDS011;39737;43.334;21.936;2022-10-16T13:13:49;4.45;;;1.92;;
53835;SDS011;39737;43.334;21.936;2022-10-16T13:16:44;1.20;;;1.10;;
53835;SDS011;39737;43.334;21.936;2022-10-16T13:19:58;5.22;;;1.75;;
53835;SDS011;39737;43.334;21.936;2022-10-16T13:26:00;3.75;;;1.48;;
53835;SDS011;39737;43.334;21.936;2022-10-16T13:28:47;2.50;;;1.70;;
53835;SDS011;39737;43.334;21.936;2022-10-16T13:31:34;2.70;;;2.28;;
53835;SDS011;39737;43.334;21.936;2022-10-16T13:34:23;3.40;;;1.80;;
53835;SDS011;39737;43.334;21.936;2022-10-16T13:37:21;4.15;;;2.00;;
53835;SDS011;39737;43.334;21.936;2022-10-16T13:40:17;7.63;;;1.85;;
53835;SDS011;39737;43.334;21.936;2022-10-16T13:43:04;3.72;;;1.80;;
53835;SDS011;39737;43.334;21.936;2022-10-16T13:45:55;2.53;;;2.15;;
53835;SDS011;39737;43.334;21.936;2022-10-16T13:48:42;2.03;;;1.60;;
53835;SDS011;39737;43.334;21.936;2022-10-16T13:51:30;5.82;;;1.63;;
53835;SDS011;39737;43.334;21.936;2022-10-16T13:54:16;3.90;;;1.75;;
53835;SDS011;39737;43.334;21.936;2022-10-16T13:57:06;5.97;;;2.20;;
53835;SDS011;39737;43.334;21.936;2022-10-16T14:00:22;3.50;;;1.80;;
53835;SDS011;39737;43.334;21.936;2022-10-16T14:03:13;4.43;;;2.38;;
53835;SDS011;39737;43.334;21.936;2022-10-16T14:06:00;3.40;;;2.00;;
53835;SDS011;39737;43.334;21.936;2022-10-16T14:08:53;3.53;;;2.28;;
53835;SDS011;39737;43.334;21.936;2022-10-16T14:12:02;4.47;;;2.42;;
53835;SDS011;39737;43.334;21.936;2022-10-16T14:14:47;5.97;;;2.58;;
53835;SDS011;39737;43.334;21.936;2022-10-16T14:17:35;4.10;;;2.33;;
53835;SDS011;39737;43.334;21.936;2022-10-16T14:20:24;4.00;;;2.42;;
53835;SDS011;39737;43.334;21.936;2022-10-16T14:29:29;3.22;;;1.70;;
53835;SDS011;39737;43.334;21.936;2022-10-16T14:32:20;3.67;;;2.53;;
53835;SDS011;39737;43.334;21.936;2022-10-16T14:35:27;3.67;;;2.60;;
53835;SDS011;39737;43.334;21.936;2022-10-16T14:38:17;2.72;;;2.35;;
53835;SDS011;39737;43.334;21.936;2022-10-16T14:41:04;6.72;;;2.50;;
53835;SDS011;39737;43.334;21.936;2022-10-16T14:44:09;4.90;;;3.30;;
53835;SDS011;39737;43.334;21.936;2022-10-16T14:46:56;4.03;;;2.40;;
53835;SDS011;39737;43.334;21.936;2022-10-16T14:49:44;3.22;;;2.38;;
53835;SDS011;39737;43.334;21.936;2022-10-16T14:52:30;2.50;;;1.98;;
53835;SDS011;39737;43.334;21.936;2022-10-16T14:55:16;5.50;;;4.15;;
53835;SDS011;39737;43.334;21.936;2022-10-16T14:58:02;3.28;;;2.10;;
53835;SDS011;39737;43.334;21.936;2022-10-16T15:00:49;3.75;;;2.28;;
53835;SDS011;39737;43.334;21.936;2022-10-16T15:03:35;5.13;;;2.72;;
53835;SDS011;39737;43.334;21.936;2022-10-16T15:06:25;3.70;;;2.30;;
53835;SDS011;39737;43.334;21.936;2022-10-16T15:09:12;5.68;;;2.65;;
53835;SDS011;39737;43.334;21.936;2022-10-16T15:11:58;7.90;;;2.80;;
53835;SDS011;39737;43.334;21.936;2022-10-16T15:14:46;4.20;;;2.53;;
53835;SDS011;39737;43.334;21.936;2022-10-16T15:17:32;3.35;;;2.45;;
53835;SDS011;39737;43.334;21.936;2022-10-16T15:20:19;4.50;;;2.50;;
53835;SDS011;39737;43.334;21.936;2022-10-16T15:23:10;4.00;;;2.75;;
53835;SDS011;39737;43.334;21.936;2022-10-16T15:25:58;4.85;;;3.15;;
53835;SDS011;39737;43.334;21.936;2022-10-16T15:28:47;5.80;;;3.55;;
53835;SDS011;39737;43.334;21.936;2022-10-16T15:31:34;5.90;;;2.90;;
53835;SDS011;39737;43.334;21.936;2022-10-16T15:34:21;5.97;;;3.03;;
53835;SDS011;39737;43.334;21.936;2022-10-16T15:37:08;7.88;;;4.65;;
53835;SDS011;39737;43.334;21.936;2022-10-16T15:39:55;4.68;;;2.80;;
53835;SDS011;39737;43.334;21.936;2022-10-16T15:42:41;6.22;;;2.47;;
53835;SDS011;39737;43.334;21.936;2022-10-16T15:45:27;9.32;;;3.70;;
53835;SDS011;39737;43.334;21.936;2022-10-16T15:48:14;8.43;;;4.07;;
53835;SDS011;39737;43.334;21.936;2022-10-16T15:51:01;5.80;;;3.25;;
53835;SDS011;39737;43.334;21.936;2022-10-16T15:53:50;7.40;;;3.10;;
53835;SDS011;39737;43.334;21.936;2022-10-16T15:56:37;5.03;;;3.05;;
53835;SDS011;39737;43.334;21.936;2022-10-16T15:59:23;3.88;;;2.85;;
53835;SDS011;39737;43.334;21.936;2022-10-16T16:02:09;5.75;;;3.42;;
53835;SDS011;39737;43.334;21.936;2022-10-16T16:04:56;3.65;;;2.70;;
53835;SDS011;39737;43.334;21.936;2022-10-16T16:07:43;4.75;;;3.03;;
53835;SDS011;39737;43.334;21.936;2022-10-16T16:10:30;5.05;;;2.60;;
53835;SDS011;39737;43.334;21.936;2022-10-16T16:13:17;4.43;;;2.83;;
53835;SDS011;39737;43.334;21.936;2022-10-16T16:16:07;7.25;;;3.45;;
53835;SDS011;39737;43.334;21.936;2022-10-16T16:18:54;6.88;;;3.20;;
53835;SDS011;39737;43.334;21.936;2022-10-16T16:21:42;3.80;;;2.90;;
53835;SDS011;39737;43.334;21.936;2022-10-16T16:24:28;6.88;;;3.15;;
53835;SDS011;39737;43.334;21.936;2022-10-16T16:27:15;7.30;;;2.92;;
53835;SDS011;39737;43.334;21.936;2022-10-16T16:30:02;8.85;;;3.00;;
53835;SDS011;39737;43.334;21.936;2022-10-16T16:32:49;4.32;;;2.85;;
53835;SDS011;39737;43.334;21.936;2022-10-16T16:35:37;4.10;;;2.55;;
53835;SDS011;39737;43.334;21.936;2022-10-16T16:38:24;4.40;;;3.15;;
53835;SDS011;39737;43.334;21.936;2022-10-16T16:41:14;4.55;;;2.63;;
53835;SDS011;39737;43.334;21.936;2022-10-16T16:44:06;3.92;;;2.72;;
53835;SDS011;39737;43.334;21.936;2022-10-16T16:46:55;4.20;;;2.80;;
53835;SDS011;39737;43.334;21.936;2022-10-16T16:49:42;4.30;;;2.17;;
53835;SDS011;39737;43.334;21.936;2022-10-16T16:52:37;5.38;;;2.33;;
53835;SDS011;39737;43.334;21.936;2022-10-16T16:55:29;3.55;;;2.20;;
53835;SDS011;39737;43.334;21.936;2022-10-16T16:58:16;4.22;;;2.60;;
53835;SDS011;39737;43.334;21.936;2022-10-16T17:01:03;4.35;;;2.78;;
53835;SDS011;39737;43.334;21.936;2022-10-16T17:04:05;3.45;;;2.70;;
53835;SDS011;39737;43.334;21.936;2022-10-16T17:06:56;3.35;;;2.38;;
53835;SDS011;39737;43.334;21.936;2022-10-16T17:09:42;8.30;;;2.83;;
53835;SDS011;39737;43.334;21.936;2022-10-16T17:12:32;4.57;;;2.80;;
53835;SDS011;39737;43.334;21.936;2022-10-16T17:15:18;3.45;;;2.60;;
53835;SDS011;39737;43.334;21.936;2022-10-16T17:18:07;4.80;;;3.00;;
53835;SDS011;39737;43.334;21.936;2022-10-16T17:20:54;2.80;;;2.05;;
53835;SDS011;39737;43.334;21.936;2022-10-16T17:23:42;7.50;;;3.00;;
53835;SDS011;39737;43.334;21.936;2022-10-16T17:26:28;4.90;;;3.10;;
53835;SDS011;39737;43.334;21.936;2022-10-16T17:29:17;8.00;;;4.80;;
53835;SDS011;39737;43.334;21.936;2022-10-16T17:32:10;7.90;;;3.33;;
53835;SDS011;39737;43.334;21.936;2022-10-16T17:34:58;6.40;;;3.40;;
53835;SDS011;39737;43.334;21.936;2022-10-16T17:37:44;18.05;;;8.38;;
53835;SDS011;39737;43.334;21.936;2022-10-16T17:40:31;9.07;;;5.10;;
53835;SDS011;39737;43.334;21.936;2022-10-16T17:43:18;9.45;;;4.30;;
53835;SDS011;39737;43.334;21.936;2022-10-16T17:46:05;7.82;;;4.32;;
53835;SDS011;39737;43.334;21.936;2022-10-16T17:48:52;9.43;;;4.88;;
53835;SDS011;39737;43.334;21.936;2022-10-16T17:51:40;7.68;;;4.25;;
53835;SDS011;39737;43.334;21.936;2022-10-16T17:57:46;51.42;;;24.30;;
53835;SDS011;39737;43.334;21.936;2022-10-16T18:00:33;57.42;;;23.15;;
53835;SDS011;39737;43.334;21.936;2022-10-16T18:03:20;35.85;;;18.70;;
53835;SDS011;39737;43.334;21.936;2022-10-16T18:06:07;31.48;;;16.67;;
53835;SDS011;39737;43.334;21.936;2022-10-16T18:08:53;67.50;;;35.30;;
53835;SDS011;39737;43.334;21.936;2022-10-16T18:11:40;75.78;;;39.85;;
53835;SDS011;39737;43.334;21.936;2022-10-16T18:14:27;66.93;;;28.90;;
53835;SDS011;39737;43.334;21.936;2022-10-16T18:17:13;21.15;;;10.77;;
53835;SDS011;39737;43.334;21.936;2022-10-16T18:20:01;11.93;;;5.50;;
53835;SDS011;39737;43.334;21.936;2022-10-16T18:22:52;8.40;;;4.95;;
53835;SDS011;39737;43.334;21.936;2022-10-16T18:25:41;19.15;;;10.40;;
53835;SDS011;39737;43.334;21.936;2022-10-16T18:28:34;30.60;;;14.98;;
53835;SDS011;39737;43.334;21.936;2022-10-16T18:31:21;37.15;;;16.15;;
53835;SDS011;39737;43.334;21.936;2022-10-16T18:34:08;30.48;;;16.95;;
53835;SDS011;39737;43.334;21.936;2022-10-16T18:36:54;28.85;;;14.50;;
53835;SDS011;39737;43.334;21.936;2022-10-16T18:39:45;39.38;;;17.20;;
53835;SDS011;39737;43.334;21.936;2022-10-16T18:42:32;24.48;;;13.48;;
53835;SDS011;39737;43.334;21.936;2022-10-16T18:45:19;30.67;;;10.48;;